createdAt,value
2022-09-30T00:00:56.223Z,1.15
2022-09-30T00:03:24.031Z,0.70
2022-09-30T00:05:57.460Z,0.60
2022-09-30T00:08:23.864Z,0.52
2022-09-30T00:10:58.526Z,0.30
2022-09-30T00:13:24.957Z,0.40
2022-09-30T00:15:51.309Z,0.50
2022-09-30T00:18:17.714Z,0.30
2022-09-30T00:20:44.014Z,0.30
2022-09-30T00:23:10.362Z,0.32
2022-09-30T00:25:36.699Z,0.40
2022-09-30T00:28:02.995Z,0.30
2022-09-30T00:30:29.328Z,0.30
2022-09-30T00:32:55.713Z,0.40
2022-09-30T00:35:22.701Z,0.30
2022-09-30T00:37:49.095Z,0.30
2022-09-30T00:40:15.444Z,0.20
2022-09-30T00:42:41.920Z,0.20
2022-09-30T00:45:10.868Z,0.30
2022-09-30T00:47:43.734Z,0.50
2022-09-30T00:50:12.822Z,0.30
2022-09-30T00:52:39.106Z,0.55
2022-09-30T00:55:08.443Z,0.40
2022-09-30T00:57:35.592Z,0.40
2022-09-30T01:00:02.420Z,0.40
2022-09-30T01:02:28.790Z,0.52
2022-09-30T01:04:56.211Z,0.40
2022-09-30T01:07:23.350Z,0.30
2022-09-30T01:09:49.878Z,0.30
2022-09-30T01:12:18.432Z,0.20
2022-09-30T01:14:45.549Z,0.20
2022-09-30T01:17:14.633Z,0.30
2022-09-30T01:19:44.037Z,0.80
2022-09-30T01:22:29.224Z,1.02
2022-09-30T01:25:01.589Z,1.35
2022-09-30T01:27:46.602Z,1.05
2022-09-30T01:30:14.892Z,0.60
2022-09-30T01:32:41.161Z,0.50
2022-09-30T01:35:17.694Z,0.47
2022-09-30T01:38:03.149Z,0.50
2022-09-30T01:40:52.845Z,0.30
2022-09-30T01:43:38.067Z,0.40
2022-09-30T01:46:17.487Z,0.40
2022-09-30T01:48:57.138Z,0.40
2022-09-30T01:51:23.436Z,0.30
2022-09-30T01:53:51.728Z,0.30
2022-09-30T01:56:20.939Z,0.30
2022-09-30T01:58:50.481Z,0.20
2022-09-30T02:01:21.567Z,0.20
2022-09-30T02:03:49.927Z,0.60
2022-09-30T02:06:19.144Z,0.60
2022-09-30T02:08:53.369Z,0.80
2022-09-30T02:11:30.019Z,0.80
2022-09-30T02:14:00.122Z,0.80
2022-09-30T02:16:32.539Z,0.30
2022-09-30T02:19:20.384Z,0.50
2022-09-30T02:21:55.713Z,0.30
2022-09-30T02:24:24.239Z,0.30
2022-09-30T02:26:54.744Z,0.50
2022-09-30T02:29:27.812Z,1.08
2022-09-30T02:31:58.158Z,0.80
2022-09-30T02:34:30.416Z,0.50
2022-09-30T02:37:02.918Z,0.50
2022-09-30T02:39:37.736Z,0.55
2022-09-30T02:42:11.445Z,0.40
2022-09-30T02:44:38.714Z,0.50
2022-09-30T02:47:11.733Z,0.40
2022-09-30T02:49:52.519Z,0.30
2022-09-30T02:52:41.250Z,0.85
2022-09-30T02:55:10.478Z,0.50
2022-09-30T02:57:45.951Z,0.50
2022-09-30T03:00:13.850Z,1.00
2022-09-30T03:02:40.971Z,0.75
2022-09-30T03:05:08.267Z,0.60
2022-09-30T03:07:34.992Z,0.50
2022-09-30T03:10:01.318Z,0.40
2022-09-30T03:12:27.610Z,0.30
2022-09-30T03:14:54.004Z,0.20
2022-09-30T03:17:32.374Z,0.20
2022-09-30T03:19:58.686Z,0.20
2022-09-30T03:22:25.076Z,0.30
2022-09-30T03:24:51.365Z,0.20
2022-09-30T03:27:36.184Z,0.20
2022-09-30T03:30:06.136Z,0.30
2022-09-30T03:32:51.003Z,0.28
2022-09-30T03:35:29.307Z,0.30
2022-09-30T03:38:15.790Z,0.30
2022-09-30T03:41:00.708Z,0.20
2022-09-30T03:43:34.640Z,0.20
2022-09-30T03:46:05.269Z,0.20
2022-09-30T03:48:33.336Z,0.30
2022-09-30T03:51:00.408Z,0.40
2022-09-30T03:53:27.811Z,0.50
2022-09-30T03:55:54.423Z,0.63
2022-09-30T03:58:23.346Z,0.47
2022-09-30T04:00:50.843Z,0.40
2022-09-30T04:03:17.648Z,0.50
2022-09-30T04:05:44.010Z,0.40
2022-09-30T04:08:10.305Z,0.43
2022-09-30T04:10:36.626Z,0.40
2022-09-30T04:13:03.046Z,0.20
2022-09-30T04:15:29.330Z,0.20
2022-09-30T04:17:55.780Z,0.20
2022-09-30T04:20:22.200Z,0.20
2022-09-30T04:22:48.486Z,0.20
2022-09-30T04:25:15.021Z,0.28
2022-09-30T04:27:41.451Z,0.90
2022-09-30T04:30:07.905Z,1.40
2022-09-30T04:32:34.198Z,1.13
2022-09-30T04:35:00.629Z,0.70
2022-09-30T04:37:26.919Z,0.60
2022-09-30T04:39:53.198Z,0.40
2022-09-30T04:42:19.642Z,0.30
2022-09-30T04:44:45.921Z,0.50
2022-09-30T04:47:12.221Z,0.30
2022-09-30T04:49:38.911Z,0.40
2022-09-30T04:52:05.206Z,0.50
2022-09-30T04:54:31.508Z,0.30
2022-09-30T04:56:57.925Z,0.43
2022-09-30T04:59:24.360Z,0.38
2022-09-30T05:01:50.878Z,0.40
2022-09-30T05:04:17.667Z,0.52
2022-09-30T05:06:44.118Z,0.40
2022-09-30T05:09:10.441Z,0.60
2022-09-30T05:11:42.321Z,0.40
2022-09-30T05:14:09.175Z,0.30
2022-09-30T05:16:35.661Z,0.28
2022-09-30T05:19:02.178Z,0.35
2022-09-30T05:21:28.764Z,0.50
2022-09-30T05:23:55.093Z,0.50
2022-09-30T05:26:21.538Z,0.50
2022-09-30T05:28:47.914Z,0.50
2022-09-30T05:31:14.244Z,0.38
2022-09-30T05:33:41.776Z,0.30
2022-09-30T05:36:08.834Z,0.22
2022-09-30T05:38:35.537Z,0.40
2022-09-30T05:41:13.137Z,0.30
2022-09-30T05:43:39.994Z,0.25
2022-09-30T05:46:06.635Z,0.47
2022-09-30T05:48:33.085Z,1.00
2022-09-30T05:51:01.716Z,0.60
2022-09-30T05:53:28.807Z,0.40
2022-09-30T05:55:55.817Z,0.35
2022-09-30T05:58:22.242Z,0.70
2022-09-30T06:00:49.137Z,0.40
2022-09-30T06:03:15.867Z,0.40
2022-09-30T06:05:42.364Z,0.40
2022-09-30T06:08:08.726Z,0.30
2022-09-30T06:10:35.460Z,0.30
2022-09-30T06:13:04.688Z,0.47
2022-09-30T06:15:31.464Z,0.40
2022-09-30T06:17:58.363Z,0.50
2022-09-30T06:20:24.739Z,0.50
2022-09-30T06:22:51.048Z,0.70
2022-09-30T06:25:17.983Z,0.70
2022-09-30T06:27:45.394Z,0.70
2022-09-30T06:30:12.312Z,1.00
2022-09-30T06:32:38.692Z,1.20
2022-09-30T06:35:05.153Z,0.90
2022-09-30T06:37:31.494Z,0.93
2022-09-30T06:39:57.978Z,0.90
2022-09-30T06:42:25.029Z,0.82
2022-09-30T06:44:53.458Z,0.70
2022-09-30T06:47:25.303Z,0.52
2022-09-30T06:49:53.046Z,0.55
2022-09-30T06:52:20.157Z,0.50
2022-09-30T06:54:47.170Z,0.30
2022-09-30T06:57:13.613Z,0.35
2022-09-30T06:59:39.910Z,0.28
2022-09-30T07:02:06.433Z,0.40
2022-09-30T07:04:32.816Z,0.30
2022-09-30T07:06:59.172Z,0.52
2022-09-30T07:09:25.681Z,0.80
2022-09-30T07:11:52.166Z,0.43
2022-09-30T07:14:18.459Z,0.45
2022-09-30T07:16:45.693Z,0.40
2022-09-30T07:19:12.238Z,0.40
2022-09-30T07:21:38.534Z,0.20
2022-09-30T07:24:05.702Z,0.30
2022-09-30T07:26:32.669Z,0.22
2022-09-30T07:29:00.175Z,0.30
2022-09-30T07:31:35.582Z,0.20
2022-09-30T07:34:03.153Z,0.20
2022-09-30T07:36:34.024Z,0.20
2022-09-30T07:39:05.332Z,0.20
2022-09-30T07:41:31.871Z,0.20
2022-09-30T07:44:01.504Z,0.20
2022-09-30T07:46:32.081Z,0.10
2022-09-30T07:49:01.437Z,0.20
2022-09-30T07:51:32.566Z,0.20
2022-09-30T07:54:01.165Z,0.20
2022-09-30T07:56:31.595Z,0.20
2022-09-30T07:59:03.384Z,0.20
2022-09-30T08:01:31.389Z,0.20
2022-09-30T08:03:59.126Z,0.20
2022-09-30T08:06:26.805Z,0.40
2022-09-30T08:08:54.114Z,0.70
2022-09-30T08:11:20.898Z,0.95
2022-09-30T08:13:53.868Z,0.85
2022-09-30T08:16:20.761Z,0.98
2022-09-30T08:18:47.077Z,0.70
2022-09-30T08:21:14.035Z,0.50
2022-09-30T08:23:40.646Z,0.38
2022-09-30T08:26:08.786Z,0.85
2022-09-30T08:28:35.741Z,0.70
2022-09-30T08:31:12.494Z,0.82
2022-09-30T08:33:39.348Z,0.73
2022-09-30T08:36:06.295Z,0.70
2022-09-30T08:38:32.994Z,0.80
2022-09-30T08:41:17.897Z,0.82
2022-09-30T08:44:03.903Z,0.75
2022-09-30T08:46:45.481Z,0.90
2022-09-30T08:49:30.108Z,0.90
2022-09-30T08:51:59.210Z,0.68
2022-09-30T08:54:28.863Z,0.70
2022-09-30T08:56:55.390Z,0.60
2022-09-30T08:59:24.662Z,0.85
2022-09-30T09:01:53.450Z,0.80
2022-09-30T09:04:19.787Z,0.40
2022-09-30T09:06:53.178Z,0.20
2022-09-30T09:09:25.455Z,0.40
2022-09-30T09:12:01.126Z,0.30
2022-09-30T09:14:30.945Z,0.20
2022-09-30T09:17:06.638Z,0.30
2022-09-30T09:19:38.712Z,0.40
2022-09-30T09:22:05.391Z,0.20
2022-09-30T09:24:43.538Z,0.20
2022-09-30T09:27:21.462Z,0.20
2022-09-30T09:30:07.496Z,0.70
2022-09-30T09:32:34.557Z,0.57
2022-09-30T09:35:02.336Z,1.17
2022-09-30T09:37:53.712Z,1.45
2022-09-30T09:40:34.226Z,1.40
2022-09-30T09:43:33.378Z,2.75
2022-09-30T09:46:02.616Z,2.60
2022-09-30T09:48:30.700Z,2.40
2022-09-30T09:51:03.914Z,3.03
2022-09-30T09:53:36.206Z,2.75
2022-09-30T09:56:03.144Z,1.83
2022-09-30T09:58:29.776Z,1.67
2022-09-30T10:01:26.541Z,1.15
2022-09-30T10:04:09.658Z,2.25
2022-09-30T10:06:44.898Z,1.75
2022-09-30T10:09:27.873Z,2.30
2022-09-30T10:12:06.037Z,1.90
2022-09-30T10:14:33.893Z,1.52
2022-09-30T10:17:04.481Z,1.83
2022-09-30T10:19:32.556Z,2.20
2022-09-30T10:22:08.181Z,2.40
2022-09-30T10:24:35.334Z,2.00
2022-09-30T10:27:01.686Z,2.13
2022-09-30T10:29:35.526Z,1.60
2022-09-30T10:32:08.730Z,1.10
2022-09-30T10:34:39.325Z,0.80
2022-09-30T10:37:09.997Z,1.10
2022-09-30T10:39:37.585Z,1.20
2022-09-30T10:42:21.205Z,1.90
2022-09-30T10:45:10.486Z,1.30
2022-09-30T10:47:44.137Z,1.23
2022-09-30T10:50:17.087Z,0.85
2022-09-30T10:53:04.241Z,0.60
2022-09-30T10:55:34.737Z,0.88
2022-09-30T10:58:21.345Z,0.60
2022-09-30T11:00:49.326Z,0.60
2022-09-30T11:03:20.642Z,0.40
2022-09-30T11:05:48.230Z,0.43
2022-09-30T11:08:33.355Z,0.25
2022-09-30T11:11:00.295Z,0.40
2022-09-30T11:13:31.191Z,0.30
2022-09-30T11:16:06.770Z,0.30
2022-09-30T11:18:36.380Z,0.30
2022-09-30T11:21:06.177Z,0.40
2022-09-30T11:23:43.166Z,0.40
2022-09-30T11:26:19.131Z,0.40
2022-09-30T11:28:58.352Z,0.30
2022-09-30T11:31:30.736Z,0.50
2022-09-30T11:33:57.114Z,0.22
2022-09-30T11:36:26.565Z,0.70
2022-09-30T11:39:11.674Z,0.60
2022-09-30T11:41:40.201Z,1.25
2022-09-30T11:44:06.570Z,0.93
2022-09-30T11:46:53.775Z,0.60
2022-09-30T11:49:38.752Z,0.43
2022-09-30T11:52:05.220Z,0.40
2022-09-30T11:54:37.450Z,0.57
2022-09-30T11:57:21.109Z,0.40
2022-09-30T11:59:52.008Z,0.40
2022-09-30T12:02:32.447Z,0.30
2022-09-30T12:05:00.935Z,0.40
2022-09-30T12:07:40.449Z,0.50
2022-09-30T12:10:14.609Z,0.38
2022-09-30T12:12:41.308Z,0.30
2022-09-30T12:15:07.798Z,0.32
2022-09-30T12:17:34.092Z,0.30
2022-09-30T12:20:05.411Z,0.65
2022-09-30T12:22:36.498Z,1.00
2022-09-30T12:25:10.615Z,1.00
2022-09-30T12:27:40.195Z,0.80
2022-09-30T12:30:17.651Z,1.20
2022-09-30T12:32:59.513Z,1.17
2022-09-30T12:35:35.191Z,0.80
2022-09-30T12:38:16.600Z,0.70
2022-09-30T12:40:43.105Z,0.52
2022-09-30T12:43:23.747Z,0.60
2022-09-30T12:45:58.928Z,0.80
2022-09-30T12:48:28.958Z,0.60
2022-09-30T12:50:57.909Z,0.80
2022-09-30T12:53:29.784Z,0.60
2022-09-30T12:56:03.024Z,1.17
2022-09-30T12:58:31.830Z,0.98
2022-09-30T13:01:18.225Z,1.02
2022-09-30T13:04:00.034Z,0.88
2022-09-30T13:06:27.309Z,0.98
2022-09-30T13:08:56.718Z,0.60
2022-09-30T13:11:34.260Z,0.40
2022-09-30T13:14:26.844Z,0.30
2022-09-30T13:17:08.694Z,0.50
2022-09-30T13:22:17.810Z,0.73
2022-09-30T13:25:05.871Z,1.50
2022-09-30T13:27:38.529Z,0.90
2022-09-30T13:30:33.586Z,0.90
2022-09-30T13:33:02.324Z,0.82
2022-09-30T13:35:32.978Z,0.70
2022-09-30T13:38:14.570Z,0.63
2022-09-30T13:41:00.730Z,1.02
2022-09-30T13:43:51.038Z,0.50
2022-09-30T13:46:35.764Z,0.38
2022-09-30T13:49:05.253Z,0.38
2022-09-30T13:51:33.172Z,0.60
2022-09-30T13:54:03.682Z,0.40
2022-09-30T13:56:40.875Z,0.60
2022-09-30T13:59:16.642Z,0.70
2022-09-30T14:01:49.171Z,0.82
2022-09-30T14:04:21.425Z,0.70
2022-09-30T14:07:26.332Z,0.50
2022-09-30T14:10:11.338Z,0.50
2022-09-30T14:12:37.700Z,0.40
2022-09-30T14:15:24.772Z,0.40
2022-09-30T14:18:06.457Z,0.30
2022-09-30T14:20:40.901Z,0.68
2022-09-30T14:23:17.142Z,1.30
2022-09-30T14:26:03.692Z,1.30
2022-09-30T14:28:46.692Z,0.80
2022-09-30T14:31:16.224Z,0.55
2022-09-30T14:33:45.261Z,0.60
2022-09-30T14:36:16.069Z,0.70
2022-09-30T14:38:44.150Z,0.68
2022-09-30T14:41:14.703Z,0.70
2022-09-30T14:43:43.130Z,0.60
2022-09-30T14:46:25.046Z,0.70
2022-09-30T14:48:51.895Z,0.73
2022-09-30T14:51:22.849Z,0.70
2022-09-30T14:53:52.795Z,0.70
2022-09-30T14:56:27.242Z,0.60
2022-09-30T14:58:57.235Z,1.00
2022-09-30T15:01:26.040Z,0.73
2022-09-30T15:03:55.464Z,0.80
2022-09-30T15:06:27.570Z,0.90
2022-09-30T15:09:14.101Z,0.88
2022-09-30T15:11:41.296Z,0.90
2022-09-30T15:14:09.964Z,0.70
2022-09-30T15:16:44.700Z,0.90
2022-09-30T15:19:33.920Z,0.90
2022-09-30T15:22:02.496Z,0.80
2022-09-30T15:24:31.294Z,0.80
2022-09-30T15:26:58.505Z,0.80
2022-09-30T15:29:24.869Z,1.10
2022-09-30T15:31:56.478Z,0.70
2022-09-30T15:34:25.453Z,1.00
2022-09-30T15:37:00.311Z,0.80
2022-09-30T15:39:47.865Z,1.08
2022-09-30T15:42:27.404Z,0.90
2022-09-30T15:44:53.761Z,0.95
2022-09-30T15:47:20.139Z,1.30
2022-09-30T15:49:49.809Z,0.70
2022-09-30T15:52:36.501Z,0.80
2022-09-30T15:55:22.811Z,0.80
2022-09-30T15:57:51.518Z,0.70
2022-09-30T16:00:32.828Z,0.90
2022-09-30T16:03:20.944Z,1.30
2022-09-30T16:05:51.914Z,0.98
2022-09-30T16:08:28.553Z,1.60
2022-09-30T16:10:56.626Z,1.00
2022-09-30T16:13:25.120Z,1.00
2022-09-30T16:15:55.055Z,0.95
2022-09-30T16:18:27.010Z,1.00
2022-09-30T16:20:56.114Z,0.90
2022-09-30T16:23:35.902Z,0.80
2022-09-30T16:26:12.519Z,0.85
2022-09-30T16:28:38.934Z,0.77
2022-09-30T16:31:07.132Z,1.10
2022-09-30T16:33:38.120Z,1.10
2022-09-30T16:36:04.587Z,1.10
2022-09-30T16:38:30.932Z,1.00
2022-09-30T16:40:58.189Z,1.08
2022-09-30T16:43:26.948Z,2.90
2022-09-30T16:45:53.434Z,3.78
2022-09-30T16:48:21.540Z,2.53
2022-09-30T16:50:54.366Z,2.35
2022-09-30T16:53:20.795Z,2.35
2022-09-30T16:55:48.217Z,1.90
2022-09-30T16:58:14.589Z,1.35
2022-09-30T17:00:44.366Z,0.93
2022-09-30T17:03:15.149Z,1.00
2022-09-30T17:05:42.833Z,0.85
2022-09-30T17:08:10.326Z,0.90
2022-09-30T17:10:36.756Z,0.80
2022-09-30T17:13:03.570Z,0.88
2022-09-30T17:15:31.141Z,0.88
2022-09-30T17:17:58.046Z,1.42
2022-09-30T17:20:24.635Z,1.48
2022-09-30T17:22:51.114Z,1.50
2022-09-30T17:25:18.057Z,1.65
2022-09-30T17:27:48.733Z,1.40
2022-09-30T17:30:15.592Z,1.35
2022-09-30T17:32:42.551Z,1.20
2022-09-30T17:35:09.105Z,1.50
2022-09-30T17:37:37.503Z,1.92
2022-09-30T17:40:26.039Z,1.73
2022-09-30T17:43:07.813Z,1.63
2022-09-30T17:45:38.437Z,1.58
2022-09-30T17:48:06.620Z,2.45
2022-09-30T17:50:33.097Z,1.98
2022-09-30T17:52:59.604Z,1.63
2022-09-30T17:55:27.710Z,1.50
2022-09-30T17:57:55.627Z,1.38
2022-09-30T18:00:22.743Z,1.15
2022-09-30T18:02:49.141Z,1.40
2022-09-30T18:05:15.622Z,2.00
2022-09-30T18:07:41.941Z,2.20
2022-09-30T18:10:08.435Z,2.72
2022-09-30T18:12:34.893Z,1.90
2022-09-30T18:15:01.338Z,1.90
2022-09-30T18:17:28.012Z,1.48
2022-09-30T18:19:54.294Z,1.40
2022-09-30T18:22:20.712Z,1.00
2022-09-30T18:25:05.637Z,1.20
2022-09-30T18:27:34.330Z,1.60
2022-09-30T18:30:04.807Z,1.60
2022-09-30T18:32:31.617Z,1.85
2022-09-30T18:34:58.072Z,1.50
2022-09-30T18:37:24.897Z,1.60
2022-09-30T18:39:51.384Z,1.58
2022-09-30T18:42:20.069Z,1.30
2022-09-30T18:44:47.159Z,0.93
2022-09-30T18:47:17.368Z,2.20
2022-09-30T18:49:44.245Z,2.75
2022-09-30T18:52:10.645Z,2.40
2022-09-30T18:54:36.972Z,2.50
2022-09-30T18:57:03.654Z,2.05
2022-09-30T18:59:30.028Z,1.67
2022-09-30T19:01:58.411Z,1.83
2022-09-30T19:04:25.019Z,2.10
2022-09-30T19:06:51.329Z,2.00
2022-09-30T19:09:17.691Z,2.50
2022-09-30T19:11:44.872Z,2.42
2022-09-30T19:14:12.422Z,2.58
2022-09-30T19:16:39.721Z,2.58
2022-09-30T19:19:08.086Z,2.40
2022-09-30T19:21:36.174Z,1.95
2022-09-30T19:24:06.485Z,2.13
2022-09-30T19:26:36.773Z,1.50
2022-09-30T19:29:03.703Z,1.70
2022-09-30T19:31:30.445Z,1.70
2022-09-30T19:33:57.183Z,1.35
2022-09-30T19:36:24.137Z,1.05
2022-09-30T19:38:52.315Z,1.40
2022-09-30T19:41:20.194Z,1.80
2022-09-30T19:43:50.125Z,1.35
2022-09-30T19:46:16.568Z,1.50
2022-09-30T19:48:42.937Z,1.67
2022-09-30T19:51:13.926Z,1.70
2022-09-30T19:53:41.998Z,1.45
2022-09-30T19:56:13.370Z,1.90
2022-09-30T19:58:40.812Z,1.85
2022-09-30T20:01:08.074Z,1.50
2022-09-30T20:03:34.866Z,1.80
2022-09-30T20:06:03.516Z,1.50
2022-09-30T20:08:30.492Z,1.70
2022-09-30T20:11:07.578Z,2.00
2022-09-30T20:13:34.095Z,1.80
2022-09-30T20:16:05.028Z,2.10
2022-09-30T20:18:31.541Z,2.30
2022-09-30T20:20:57.878Z,2.28
2022-09-30T20:23:24.729Z,3.00
2022-09-30T20:25:51.833Z,3.20
2022-09-30T20:28:21.765Z,4.07
2022-09-30T20:30:48.680Z,3.80
2022-09-30T20:33:19.144Z,4.43
2022-09-30T20:35:46.557Z,3.58
2022-09-30T20:38:14.193Z,3.05
2022-09-30T20:40:40.507Z,2.10
2022-09-30T20:43:08.051Z,3.60
2022-09-30T20:45:35.235Z,3.75
2022-09-30T20:48:02.612Z,3.58
2022-09-30T20:50:38.376Z,3.40
2022-09-30T20:53:06.272Z,2.63
2022-09-30T20:55:36.694Z,2.58
2022-09-30T20:58:03.299Z,2.17
2022-09-30T21:00:30.276Z,2.15
2022-09-30T21:02:57.202Z,1.73
2022-09-30T21:05:23.489Z,1.67
2022-09-30T21:07:50.226Z,2.10
2022-09-30T21:10:17.513Z,1.40
2022-09-30T21:12:44.022Z,1.70
2022-09-30T21:15:11.722Z,1.90
2022-09-30T21:17:38.523Z,1.70
2022-09-30T21:20:05.639Z,1.55
2022-09-30T21:22:31.957Z,1.83
2022-09-30T21:24:58.297Z,2.00
2022-09-30T21:27:24.581Z,1.98
2022-09-30T21:29:50.908Z,1.73
2022-09-30T21:32:17.371Z,2.20
2022-09-30T21:34:43.680Z,2.40
2022-09-30T21:37:10.740Z,2.38
2022-09-30T21:39:37.045Z,2.38
2022-09-30T21:42:03.570Z,1.60
2022-09-30T21:44:29.911Z,1.40
2022-09-30T21:46:56.206Z,1.80
2022-09-30T21:49:26.244Z,2.47
2022-09-30T21:51:55.822Z,2.08
2022-09-30T21:54:23.313Z,1.73
2022-09-30T21:56:49.713Z,1.45
2022-09-30T21:59:16.359Z,1.50
2022-09-30T22:01:42.640Z,1.80
2022-09-30T22:04:09.171Z,1.58
2022-09-30T22:06:35.585Z,1.70
2022-09-30T22:09:01.992Z,2.70
2022-09-30T22:11:29.328Z,2.00
2022-09-30T22:13:56.837Z,2.90
2022-09-30T22:16:24.387Z,2.30
2022-09-30T22:18:54.697Z,2.47
2022-09-30T22:21:21.441Z,2.15
2022-09-30T22:23:48.356Z,2.15
2022-09-30T22:26:17.569Z,1.55
2022-09-30T22:28:47.412Z,2.17
2022-09-30T22:31:14.795Z,1.70
2022-09-30T22:33:59.878Z,2.53
2022-09-30T22:36:44.952Z,1.52
2022-09-30T22:39:11.334Z,2.08
2022-09-30T22:41:38.276Z,2.47
2022-09-30T22:44:04.961Z,2.20
2022-09-30T22:46:35.395Z,2.20
2022-09-30T22:49:01.997Z,2.67
2022-09-30T22:51:28.897Z,1.83
2022-09-30T22:53:55.997Z,2.20
2022-09-30T22:56:22.929Z,2.10
2022-09-30T22:58:49.309Z,2.20
2022-09-30T23:01:15.664Z,1.83
2022-09-30T23:03:45.002Z,2.15
2022-09-30T23:06:11.459Z,2.25
2022-09-30T23:08:41.736Z,2.33
2022-09-30T23:11:09.936Z,1.80
2022-09-30T23:13:36.599Z,1.52
2022-09-30T23:16:03.557Z,1.70
2022-09-30T23:18:30.375Z,1.45
2022-09-30T23:21:00.853Z,1.70
2022-09-30T23:23:29.842Z,1.60
2022-09-30T23:26:03.872Z,2.13
2022-09-30T23:28:30.528Z,1.70
2022-09-30T23:31:00.318Z,2.00
2022-09-30T23:33:26.742Z,1.70
2022-09-30T23:35:55.330Z,1.60
2022-09-30T23:38:24.957Z,1.77
2022-09-30T23:40:51.737Z,1.40
2022-09-30T23:43:22.318Z,2.15
2022-09-30T23:45:48.788Z,1.90
2022-09-30T23:48:15.328Z,1.77
2022-09-30T23:50:42.618Z,1.63
2022-09-30T23:53:08.902Z,1.90
2022-09-30T23:55:35.191Z,2.05
2022-09-30T23:58:01.539Z,1.60
